Walum, North Dakota
Current Conditions -  °F | °C
As of 1:15 AM on Friday 19 Dec 2014 (Local Time) from KBAC Reporting Station
Haze Haze  
Wind Chill: -11°   Ceiling: 300
Heat Index: -5°   Visibility: 3mi
Dew Point: -5°   Wind: 9mph
Humidity: 100%   Direction: 160°SSE
Pressure: 30.07"   Gusts: NA
Location:  47.2843°N, 98.1073°W
Report Text: KBAC 190715Z AUTO 16008KT 3SM BR OVC003 M05/M05 A3007 RMK AO2
Loading
Personal Weather Stations






























Interactive Weather Map New forecast layout! Learn more

10-Day Weather Forecast

Advertisements
Track Severe Weather on mobile